createdAt,value
2018-04-25T03:01:07.064Z,0.00
2018-04-25T03:02:07.971Z,0.00
2018-04-25T03:03:07.596Z,0.00
2018-04-25T03:04:07.152Z,0.00
2018-04-25T03:05:07.512Z,0.00
2018-04-25T03:06:07.675Z,0.00
2018-04-25T03:07:07.742Z,0.00
2018-04-25T03:08:11.219Z,0.00
2018-04-25T03:09:09.319Z,0.00
2018-04-25T03:10:08.111Z,0.00
2018-04-25T03:12:08.616Z,0.00
2018-04-25T03:13:09.149Z,0.00
2018-04-25T03:14:08.996Z,0.00
2018-04-25T03:15:09.388Z,0.00
2018-04-25T03:16:09.387Z,0.00
2018-04-25T03:17:09.475Z,0.00
2018-04-25T03:18:10.796Z,0.00
2018-04-25T03:19:10.712Z,0.00
2018-04-25T03:20:10.052Z,0.00
2018-04-25T03:21:08.679Z,0.00
2018-04-25T03:22:08.053Z,0.00
2018-04-25T03:23:08.353Z,0.00
2018-04-25T03:24:08.545Z,0.00
2018-04-25T03:25:08.531Z,0.00
2018-04-25T03:26:08.945Z,0.00
2018-04-25T03:27:08.906Z,0.00
2018-04-25T03:28:09.037Z,0.00
2018-04-25T03:29:09.248Z,0.00
2018-04-25T03:30:09.506Z,0.00
2018-04-25T03:31:09.580Z,0.00
2018-04-25T03:32:09.735Z,0.00
2018-04-25T03:33:09.949Z,0.00
2018-04-25T03:34:10.557Z,0.00
2018-04-25T03:35:10.331Z,0.00
2018-04-25T03:36:10.586Z,4.00
2018-04-25T03:37:10.709Z,4.00
2018-04-25T03:38:10.930Z,4.00
2018-04-25T03:39:11.221Z,4.00
2018-04-25T03:40:11.350Z,4.00
2018-04-25T03:41:11.650Z,8.00
2018-04-25T03:42:11.764Z,4.00
2018-04-25T03:43:11.955Z,4.00
2018-04-25T03:44:12.225Z,8.00
2018-04-25T03:45:12.487Z,12.00
2018-04-25T03:46:12.447Z,12.00
2018-04-25T03:47:12.747Z,16.00
2018-04-25T03:48:12.824Z,16.00
2018-04-25T03:49:12.990Z,20.00
2018-04-25T03:50:13.343Z,20.00
2018-04-25T03:51:13.622Z,24.00
2018-04-25T03:52:13.681Z,32.00
2018-04-25T03:53:13.771Z,36.00
2018-04-25T03:54:14.009Z,44.00
2018-04-25T03:55:14.073Z,48.00
2018-04-25T03:56:14.276Z,56.00
2018-04-25T03:57:14.507Z,64.00
2018-04-25T03:58:14.719Z,72.00
2018-04-25T03:59:14.782Z,84.00
2018-04-25T04:00:15.285Z,96.00
2018-04-25T04:01:15.117Z,108.00
2018-04-25T04:02:15.256Z,116.00
2018-04-25T04:03:15.465Z,132.00
2018-04-25T04:04:15.607Z,152.00
2018-04-25T04:05:15.865Z,168.00
2018-04-25T04:06:16.000Z,184.00
2018-04-25T04:07:16.211Z,204.00
2018-04-25T04:08:16.379Z,224.00
2018-04-25T04:09:16.526Z,240.00
2018-04-25T04:10:16.658Z,260.00
2018-04-25T04:11:16.877Z,280.00
2018-04-25T04:12:16.997Z,304.00
2018-04-25T04:13:17.035Z,320.00
2018-04-25T04:14:17.273Z,340.00
2018-04-25T04:15:17.361Z,352.00
2018-04-25T04:16:17.577Z,368.00
2018-04-25T04:17:17.733Z,376.00
2018-04-25T04:18:17.901Z,396.00
2018-04-25T04:19:18.000Z,420.00
2018-04-25T04:20:18.221Z,440.00
2018-04-25T04:21:18.378Z,456.00
2018-04-25T04:22:18.510Z,468.00
2018-04-25T04:23:18.747Z,484.00
2018-04-25T04:24:18.914Z,500.00
2018-04-25T04:25:19.001Z,516.00
2018-04-25T04:26:19.240Z,536.00
2018-04-25T04:27:19.408Z,564.00
2018-04-25T04:28:19.637Z,604.00
2018-04-25T04:29:19.741Z,656.00
2018-04-25T04:30:19.835Z,696.00
2018-04-25T04:31:19.974Z,728.00
2018-04-25T04:32:20.206Z,760.00
2018-04-25T04:33:20.440Z,772.00
2018-04-25T04:34:20.574Z,796.00
2018-04-25T04:35:20.754Z,828.00
2018-04-25T04:36:20.975Z,856.00
2018-04-25T04:37:21.064Z,876.00
2018-04-25T04:38:21.239Z,888.00
2018-04-25T04:39:21.419Z,916.00
2018-04-25T04:40:21.577Z,940.00
2018-04-25T04:41:21.869Z,968.00
2018-04-25T04:42:21.937Z,992.00
2018-04-25T04:43:22.077Z,1040.00
2018-04-25T04:44:22.263Z,1104.00
2018-04-25T04:45:22.504Z,1176.00
2018-04-25T04:46:22.618Z,1268.00
2018-04-25T04:47:22.784Z,1364.00
2018-04-25T04:48:22.957Z,1412.00
2018-04-25T04:49:23.162Z,1432.00
2018-04-25T04:50:23.243Z,1444.00
2018-04-25T04:51:24.320Z,1464.00
2018-04-25T04:52:23.751Z,1468.00
2018-04-25T04:53:23.768Z,1460.00
2018-04-25T04:54:24.207Z,1452.00
2018-04-25T04:55:24.507Z,1412.00
2018-04-25T04:58:29.614Z,1424.00
2018-04-25T04:59:22.418Z,1444.00
2018-04-25T05:00:23.500Z,1524.00
2018-04-25T05:01:20.352Z,1660.00
2018-04-25T05:02:21.899Z,1876.00
2018-04-25T05:03:20.921Z,2064.00
2018-04-25T05:04:21.070Z,2184.00
2018-04-25T05:05:20.431Z,2260.00
2018-04-25T05:06:22.573Z,2308.00
2018-04-25T05:07:20.273Z,2300.00
2018-04-25T05:08:18.647Z,2236.00
2018-04-25T05:09:18.720Z,2064.00
2018-04-25T05:10:19.227Z,1900.00
2018-04-25T05:11:19.545Z,1756.00
2018-04-25T05:14:32.990Z,1432.00
2018-04-25T05:15:23.866Z,1312.00
2018-04-25T05:16:24.308Z,1204.00
2018-04-25T05:17:23.831Z,1152.00
2018-04-25T05:18:24.330Z,1116.00
2018-04-25T05:19:24.483Z,1100.00
2018-04-25T05:20:24.777Z,1108.00
2018-04-25T05:21:24.872Z,1164.00
2018-04-25T05:22:23.319Z,1272.00
2018-04-25T05:23:22.858Z,1356.00
2018-04-25T05:24:23.056Z,1408.00
2018-04-25T05:25:23.184Z,1480.00
2018-04-25T05:26:23.135Z,1596.00
2018-04-25T05:27:23.256Z,1772.00
2018-04-25T05:28:23.392Z,1896.00
2018-04-25T05:29:23.709Z,1916.00
2018-04-25T05:30:34.990Z,1960.00
2018-04-25T05:31:33.751Z,2004.00
2018-04-25T05:37:11.298Z,2476.00
2018-04-25T05:38:11.508Z,2728.00
2018-04-25T05:39:11.855Z,3072.00
2018-04-25T05:40:13.039Z,3392.00
2018-04-25T05:41:12.475Z,3576.00
2018-04-25T05:42:12.377Z,3760.00
2018-04-25T05:43:12.781Z,3828.00
2018-04-25T05:44:13.348Z,3724.00
2018-04-25T05:46:34.259Z,3664.00
2018-04-25T05:47:13.031Z,3748.00
2018-04-25T05:48:13.419Z,3904.00
2018-04-25T05:49:13.817Z,4124.00
2018-04-25T05:50:14.427Z,4316.00
2018-04-25T05:51:14.460Z,4456.00
2018-04-25T05:52:14.355Z,4368.00
2018-04-25T05:53:14.097Z,4300.00
2018-04-25T05:54:14.513Z,4648.00
2018-04-25T05:55:14.395Z,4776.00
2018-04-25T05:56:15.470Z,4136.00
2018-04-25T05:57:14.737Z,3640.00
2018-04-25T05:58:12.764Z,3544.00
2018-04-25T05:59:12.976Z,3504.00
2018-04-25T06:00:13.277Z,3516.00
2018-04-25T06:01:13.252Z,3824.00
2018-04-25T06:02:13.373Z,4224.00
2018-04-25T06:04:26.038Z,3948.00
2018-04-25T06:05:17.468Z,3080.00
2018-04-25T06:11:02.763Z,2284.00
2018-04-25T06:12:16.377Z,2660.00
2018-04-25T06:12:59.120Z,3168.00
2018-04-25T06:13:59.866Z,3896.00
2018-04-25T06:14:59.695Z,4408.00
2018-04-25T06:15:59.741Z,4752.00
2018-04-25T06:16:59.942Z,4660.00
2018-04-25T06:18:01.837Z,4156.00
2018-04-25T06:19:02.655Z,3268.00
2018-04-25T06:21:00.855Z,3244.00
2018-04-25T06:22:00.326Z,3200.00
2018-04-25T06:22:59.308Z,2652.00
2018-04-25T06:23:59.095Z,2296.00
2018-04-25T06:24:59.144Z,2172.00
2018-04-25T06:25:59.228Z,2276.00
2018-04-25T06:27:03.484Z,2384.00
2018-04-25T06:27:59.370Z,2548.00
2018-04-25T06:28:59.552Z,2892.00
2018-04-25T06:29:59.743Z,2984.00
2018-04-25T06:30:59.809Z,3652.00
2018-04-25T06:32:00.025Z,4204.00
2018-04-25T06:33:00.208Z,4364.00
2018-04-25T06:34:00.367Z,4324.00
2018-04-25T06:35:00.491Z,4044.00
2018-04-25T06:36:00.653Z,3744.00
2018-04-25T06:37:00.830Z,3788.00
2018-04-25T06:38:00.982Z,3908.00
2018-04-25T06:39:01.194Z,4032.00
2018-04-25T06:40:01.330Z,4236.00
2018-04-25T06:41:01.444Z,4248.00
2018-04-25T06:42:01.659Z,4040.00
2018-04-25T06:43:01.783Z,3740.00
2018-04-25T06:44:01.995Z,3976.00
2018-04-25T06:45:02.169Z,4448.00
2018-04-25T06:46:03.026Z,5216.00
2018-04-25T06:47:02.656Z,4600.00
2018-04-25T06:48:02.842Z,3820.00
2018-04-25T06:49:05.233Z,3536.00
2018-04-25T06:50:02.950Z,2936.00
2018-04-25T06:51:03.183Z,3084.00
2018-04-25T06:52:03.318Z,3852.00
2018-04-25T06:53:03.538Z,3984.00
2018-04-25T06:54:03.598Z,4184.00
2018-04-25T06:55:03.836Z,4320.00
2018-04-25T06:56:03.972Z,4016.00
2018-04-25T06:57:04.127Z,3276.00
2018-04-25T06:58:04.443Z,2676.00
2018-04-25T07:00:49.584Z,2304.00
2018-04-25T07:04:20.012Z,3104.00
2018-04-25T07:05:08.916Z,2764.00
2018-04-25T07:06:16.592Z,2624.00
2018-04-25T07:07:08.683Z,1972.00
2018-04-25T07:08:08.935Z,1864.00
2018-04-25T07:09:09.425Z,2196.00
2018-04-25T07:10:09.683Z,2084.00
2018-04-25T07:13:19.691Z,2360.00
2018-04-25T07:14:09.843Z,2852.00
2018-04-25T07:15:11.037Z,3016.00
2018-04-25T07:16:10.505Z,2560.00
2018-04-25T07:17:11.231Z,2704.00
2018-04-25T07:18:19.010Z,3328.00
2018-04-25T07:19:10.767Z,3476.00
2018-04-25T07:20:12.933Z,3660.00
2018-04-25T07:21:13.874Z,3572.00
2018-04-25T07:22:11.267Z,3272.00
2018-04-25T07:23:13.320Z,3144.00
2018-04-25T07:24:12.550Z,3388.00
2018-04-25T07:25:14.859Z,3552.00
2018-04-25T07:26:11.743Z,3720.00
2018-04-25T07:31:31.545Z,3452.00
2018-04-25T07:32:39.248Z,3484.00
2018-04-25T07:36:22.783Z,4036.00
2018-04-25T07:40:56.506Z,5856.00
2018-04-25T07:41:48.761Z,6104.00
2018-04-25T07:45:54.805Z,5488.00
2018-04-25T07:46:55.809Z,6136.00
2018-04-25T07:48:03.484Z,6892.00
2018-04-25T07:48:55.695Z,7380.00
2018-04-25T07:51:07.479Z,7276.00
2018-04-25T07:51:55.898Z,7896.00
2018-04-25T07:52:56.320Z,7924.00
2018-04-25T07:53:58.312Z,8648.00
2018-04-25T07:54:56.397Z,9028.00
2018-04-25T07:56:01.111Z,9188.00
2018-04-25T07:58:40.565Z,8680.00
2018-04-25T07:59:40.893Z,9808.00
2018-04-25T08:00:41.101Z,8968.00
2018-04-25T08:01:41.674Z,9520.00
2018-04-25T08:02:41.863Z,10332.00
2018-04-25T08:04:52.882Z,9312.00
2018-04-25T08:05:42.978Z,10572.00
2018-04-25T08:06:50.762Z,10920.00
2018-04-25T08:07:42.852Z,9824.00
2018-04-25T08:08:42.629Z,9088.00
2018-04-25T08:09:43.173Z,8456.00
2018-04-25T08:10:43.211Z,9404.00
2018-04-25T08:11:43.728Z,10144.00
2018-04-25T08:12:43.272Z,10668.00
2018-04-25T08:13:45.151Z,10608.00
2018-04-25T08:14:44.812Z,10828.00
2018-04-25T08:15:46.289Z,11708.00
2018-04-25T08:16:44.847Z,15200.00
2018-04-25T08:17:42.588Z,11032.00
2018-04-25T08:22:21.142Z,13908.00
2018-04-25T08:24:50.341Z,14624.00
2018-04-25T08:25:49.320Z,13924.00
2018-04-25T08:26:49.575Z,15136.00
2018-04-25T08:27:49.293Z,15616.00
2018-04-25T08:28:49.405Z,16928.00
2018-04-25T08:29:49.927Z,18688.00
2018-04-25T08:30:49.976Z,18912.00
2018-04-25T08:31:51.897Z,19648.00
2018-04-25T08:32:50.786Z,18688.00
2018-04-25T08:33:51.776Z,13576.00
2018-04-25T08:34:50.829Z,12128.00
2018-04-25T08:35:48.577Z,10856.00
2018-04-25T08:36:48.786Z,10496.00
2018-04-25T08:37:48.966Z,10380.00
2018-04-25T08:38:49.118Z,9992.00
2018-04-25T08:39:49.324Z,9912.00
2018-04-25T08:40:49.477Z,9716.00
2018-04-25T08:41:49.663Z,9152.00
2018-04-25T08:42:49.783Z,8436.00
2018-04-25T08:43:51.759Z,7676.00
2018-04-25T08:46:25.302Z,5208.00
2018-04-25T08:47:25.852Z,4620.00
2018-04-25T08:48:28.124Z,4276.00
2018-04-25T08:49:24.204Z,4168.00
2018-04-25T08:50:23.852Z,4044.00
2018-04-25T08:51:24.048Z,4068.00
2018-04-25T08:52:24.215Z,4092.00
2018-04-25T08:53:24.374Z,4864.00
2018-04-25T08:54:24.573Z,6676.00
2018-04-25T08:55:24.645Z,7472.00
2018-04-25T08:56:24.812Z,8448.00
2018-04-25T08:57:25.038Z,11116.00
2018-04-25T08:58:25.182Z,12612.00
2018-04-25T08:59:25.697Z,11588.00
2018-04-25T09:00:37.610Z,8772.00
2018-04-25T09:01:28.211Z,8200.00
2018-04-25T09:02:28.069Z,8768.00
2018-04-25T09:03:28.304Z,7896.00
2018-04-25T09:04:28.468Z,6364.00
2018-04-25T09:05:28.580Z,6124.00
2018-04-25T09:06:28.519Z,6396.00
2018-04-25T09:08:29.396Z,4792.00
2018-04-25T09:09:29.880Z,4196.00
2018-04-25T09:10:28.965Z,3688.00
2018-04-25T09:11:27.393Z,3428.00
2018-04-25T09:12:27.540Z,2972.00
2018-04-25T09:13:27.678Z,2888.00
2018-04-25T09:14:28.133Z,3132.00
2018-04-25T09:15:28.022Z,3268.00
2018-04-25T09:16:28.274Z,3372.00
2018-04-25T09:17:28.625Z,3656.00
2018-04-25T09:18:28.720Z,4368.00
2018-04-25T09:19:28.862Z,5944.00
2018-04-25T09:20:29.172Z,7076.00
2018-04-25T09:21:29.201Z,8140.00
2018-04-25T09:22:29.312Z,8168.00
2018-04-25T09:23:29.512Z,8620.00
2018-04-25T09:24:29.690Z,8076.00
2018-04-25T09:25:29.809Z,7276.00
2018-04-25T09:26:30.003Z,7168.00
2018-04-25T09:27:30.488Z,7972.00
2018-04-25T09:28:30.538Z,7776.00
2018-04-25T09:29:30.655Z,6820.00
2018-04-25T09:30:30.771Z,5496.00
2018-04-25T09:31:30.800Z,4164.00
2018-04-25T09:32:33.261Z,3248.00
2018-04-25T09:33:31.313Z,2652.00
2018-04-25T09:34:31.562Z,2188.00
2018-04-25T09:35:31.869Z,1812.00
2018-04-25T09:36:31.867Z,1804.00
2018-04-25T09:37:32.016Z,1852.00
2018-04-25T09:38:32.328Z,1916.00
2018-04-25T09:39:32.538Z,2212.00
2018-04-25T09:40:32.559Z,2620.00
2018-04-25T09:41:32.729Z,3500.00
2018-04-25T09:42:32.970Z,3792.00
2018-04-25T09:43:35.563Z,3504.00
2018-04-25T09:44:33.539Z,3296.00
2018-04-25T09:45:33.612Z,3492.00
2018-04-25T09:46:33.533Z,3024.00
2018-04-25T09:47:33.760Z,2980.00
2018-04-25T09:48:33.915Z,3188.00
2018-04-25T09:49:34.485Z,3396.00
2018-04-25T09:50:34.192Z,3108.00
2018-04-25T09:51:34.311Z,2808.00
2018-04-25T09:52:34.508Z,2592.00
2018-04-25T09:53:34.769Z,2532.00
2018-04-25T09:54:34.974Z,3136.00
2018-04-25T09:55:34.940Z,4936.00
2018-04-25T09:56:35.117Z,7932.00
2018-04-25T09:57:35.427Z,10636.00
2018-04-25T09:58:35.452Z,16640.00
2018-04-25T09:59:35.668Z,17376.00
2018-04-25T10:00:35.896Z,56128.00
2018-04-25T10:01:36.514Z,26272.00
2018-04-25T10:02:36.205Z,22464.00
2018-04-25T10:03:36.701Z,21056.00
2018-04-25T10:04:36.534Z,21696.00
2018-04-25T10:05:38.442Z,24384.00
2018-04-25T10:06:36.856Z,24288.00
2018-04-25T10:07:37.106Z,21312.00
2018-04-25T10:08:37.779Z,18848.00
2018-04-25T10:09:37.677Z,15840.00
2018-04-25T10:10:37.543Z,20416.00
2018-04-25T10:11:38.109Z,18720.00
2018-04-25T10:12:37.886Z,16000.00
2018-04-25T10:13:37.909Z,14428.00
2018-04-25T10:14:40.575Z,16384.00
2018-04-25T10:15:40.979Z,18368.00
2018-04-25T10:16:38.649Z,19456.00
2018-04-25T10:17:38.665Z,15744.00
2018-04-25T10:18:38.802Z,14556.00
2018-04-25T10:19:39.586Z,18080.00
2018-04-25T10:20:39.095Z,24768.00
2018-04-25T10:21:40.198Z,18528.00
2018-04-25T10:22:39.520Z,13088.00
2018-04-25T10:23:39.636Z,10472.00
2018-04-25T10:24:39.807Z,9216.00
2018-04-25T10:25:40.292Z,9764.00
2018-04-25T10:26:40.554Z,10988.00
2018-04-25T10:27:40.445Z,12056.00
2018-04-25T10:28:40.789Z,11568.00
2018-04-25T10:29:41.262Z,13580.00
2018-04-25T10:30:40.991Z,17216.00
2018-04-25T10:31:41.186Z,15872.00
2018-04-25T10:32:41.249Z,13480.00
2018-04-25T10:33:41.536Z,11904.00
2018-04-25T10:34:41.557Z,10668.00
2018-04-25T10:35:41.782Z,9964.00
2018-04-25T10:36:42.713Z,9396.00
2018-04-25T10:38:42.490Z,8084.00
2018-04-25T10:39:42.407Z,9176.00
2018-04-25T10:40:42.645Z,10756.00
2018-04-25T10:41:44.232Z,12532.00
2018-04-25T10:42:43.198Z,14800.00
2018-04-25T10:43:43.154Z,18432.00
2018-04-25T10:44:43.978Z,22240.00
2018-04-25T10:45:43.528Z,24800.00
2018-04-25T10:46:43.645Z,26432.00
2018-04-25T10:47:43.962Z,72384.00
2018-04-25T10:48:44.007Z,72480.00
2018-04-25T10:49:44.235Z,74208.00
2018-04-25T10:50:44.317Z,37440.00
2018-04-25T10:51:44.709Z,33536.00
2018-04-25T10:52:46.421Z,51616.00
2018-04-25T10:53:45.041Z,29024.00
2018-04-25T10:54:45.075Z,16384.00
2018-04-25T10:55:46.068Z,11904.00
2018-04-25T10:56:45.372Z,9520.00
2018-04-25T10:57:45.601Z,8256.00
2018-04-25T10:58:46.117Z,7396.00
2018-04-25T10:59:45.869Z,6900.00
2018-04-25T11:00:46.035Z,6300.00
2018-04-25T11:01:46.195Z,5532.00
2018-04-25T11:02:46.400Z,4936.00
2018-04-25T11:03:46.578Z,4812.00
2018-04-25T11:04:46.703Z,4820.00
2018-04-25T11:05:46.883Z,4556.00
2018-04-25T11:06:47.083Z,4408.00
2018-04-25T11:07:47.362Z,4840.00
2018-04-25T11:08:47.662Z,5572.00
2018-04-25T11:09:47.529Z,5988.00
2018-04-25T11:10:49.745Z,6068.00
2018-04-25T11:11:48.148Z,5964.00
2018-04-25T11:12:48.070Z,5688.00
2018-04-25T11:13:48.438Z,5588.00
2018-04-25T11:14:48.801Z,5712.00
2018-04-25T11:15:48.596Z,6396.00
2018-04-25T11:16:49.652Z,7540.00
2018-04-25T11:17:49.004Z,9260.00
2018-04-25T11:18:49.054Z,11488.00
2018-04-25T11:19:49.540Z,13840.00
2018-04-25T11:20:49.885Z,16640.00
2018-04-25T11:21:49.604Z,19968.00
2018-04-25T11:22:49.919Z,23264.00
2018-04-25T11:23:49.883Z,24672.00
2018-04-25T11:24:50.132Z,26016.00
2018-04-25T11:25:50.555Z,88096.00
2018-04-25T11:26:50.487Z,18880.00
2018-04-25T11:27:50.707Z,14692.00
2018-04-25T11:28:50.731Z,13016.00
2018-04-25T11:29:50.906Z,12168.00
2018-04-25T11:30:51.052Z,11728.00
2018-04-25T11:31:51.353Z,10604.00
2018-04-25T11:32:51.449Z,9368.00
2018-04-25T11:33:51.582Z,7788.00
2018-04-25T11:34:51.694Z,7440.00
2018-04-25T11:35:51.911Z,7888.00
2018-04-25T11:36:52.342Z,8696.00
2018-04-25T11:37:52.303Z,9688.00
2018-04-25T11:38:52.395Z,10912.00
2018-04-25T11:39:52.624Z,14188.00
2018-04-25T11:40:52.782Z,21760.00
2018-04-25T11:41:52.931Z,13340.00
2018-04-25T11:42:53.126Z,15764.00
2018-04-25T11:43:53.310Z,25696.00
2018-04-25T11:44:53.480Z,88352.00
2018-04-25T11:45:53.617Z,95008.00
2018-04-25T11:46:53.740Z,86880.00
2018-04-25T11:47:53.918Z,41984.00
2018-04-25T11:48:54.123Z,30656.00
2018-04-25T11:49:54.270Z,35072.00
2018-04-25T11:50:54.418Z,48000.00
2018-04-25T11:51:54.590Z,27104.00
2018-04-25T11:52:54.829Z,30912.00
2018-04-25T11:53:54.952Z,93376.00
2018-04-25T11:54:55.161Z,95584.00
2018-04-25T11:55:55.189Z,33248.00
2018-04-25T11:56:55.380Z,15668.00
2018-04-25T11:57:55.729Z,19552.00
2018-04-25T11:58:55.728Z,43968.00
2018-04-25T11:59:55.930Z,44992.00
2018-04-25T12:00:56.214Z,59200.00
2018-04-25T12:01:56.330Z,94400.00
2018-04-25T12:02:56.473Z,93664.00
2018-04-25T12:03:56.603Z,68928.00
2018-04-25T12:04:56.819Z,66048.00
2018-04-25T12:05:57.021Z,79200.00
2018-04-25T12:06:57.213Z,97312.00
2018-04-25T12:07:57.530Z,94560.00
2018-04-25T12:08:57.590Z,78112.00
2018-04-25T12:09:57.731Z,29088.00
2018-04-25T12:10:57.925Z,33344.00
2018-04-25T12:11:58.136Z,23872.00
2018-04-25T12:12:58.267Z,19264.00
2018-04-25T12:13:58.452Z,24064.00
2018-04-25T12:14:58.568Z,35296.00
2018-04-25T12:15:58.881Z,24160.00
2018-04-25T12:16:58.928Z,40352.00
2018-04-25T12:17:59.186Z,20544.00
2018-04-25T12:18:59.353Z,22304.00
2018-04-25T12:19:59.553Z,24288.00
2018-04-25T12:20:59.710Z,21664.00
2018-04-25T12:21:59.933Z,20608.00
2018-04-25T12:23:00.033Z,18176.00
2018-04-25T12:24:00.198Z,14204.00
2018-04-25T12:25:00.502Z,11864.00
2018-04-25T12:26:00.530Z,10836.00
2018-04-25T12:27:00.692Z,10856.00
2018-04-25T12:28:00.857Z,9760.00
2018-04-25T12:29:01.053Z,8988.00
2018-04-25T12:30:01.283Z,8312.00
2018-04-25T12:31:01.472Z,7808.00
2018-04-25T12:32:01.624Z,7612.00
2018-04-25T12:33:01.797Z,7212.00
2018-04-25T12:34:02.014Z,6968.00
2018-04-25T12:35:02.098Z,7268.00
2018-04-25T12:36:02.290Z,8432.00
2018-04-25T12:37:02.436Z,10692.00
2018-04-25T12:38:02.621Z,14932.00
2018-04-25T12:39:02.735Z,16512.00
2018-04-25T12:40:02.936Z,17472.00
2018-04-25T12:41:03.108Z,27680.00
2018-04-25T12:42:03.338Z,44416.00
2018-04-25T12:43:03.538Z,69728.00
2018-04-25T12:44:03.718Z,28800.00
2018-04-25T12:45:03.832Z,34496.00
2018-04-25T12:46:06.492Z,33216.00
2018-04-25T12:47:04.214Z,18208.00
2018-04-25T12:48:04.349Z,15776.00
2018-04-25T12:49:04.518Z,14580.00
2018-04-25T12:50:04.625Z,17280.00
2018-04-25T12:51:04.785Z,23712.00
2018-04-25T12:52:04.986Z,20352.00
2018-04-25T12:53:05.254Z,19520.00
2018-04-25T12:54:05.355Z,46624.00
2018-04-25T12:55:05.480Z,18976.00
2018-04-25T12:56:05.683Z,12448.00
2018-04-25T12:57:05.870Z,12476.00
2018-04-25T12:58:06.035Z,14252.00
2018-04-25T12:59:06.219Z,12616.00
2018-04-25T13:00:06.369Z,11156.00
2018-04-25T13:01:06.497Z,10492.00
2018-04-25T13:02:06.697Z,12416.00
2018-04-25T13:03:06.821Z,20832.00
2018-04-25T13:04:06.920Z,14232.00
2018-04-25T13:05:07.170Z,11836.00
2018-04-25T13:06:07.355Z,9808.00
2018-04-25T13:07:07.467Z,9672.00
2018-04-25T13:08:07.665Z,10188.00
2018-04-25T13:09:07.882Z,10616.00
2018-04-25T13:10:07.982Z,11632.00
2018-04-25T13:11:08.179Z,11892.00
2018-04-25T13:12:08.349Z,11196.00
2018-04-25T13:13:08.496Z,11428.00
2018-04-25T13:14:08.678Z,12100.00
2018-04-25T13:15:08.955Z,11872.00
2018-04-25T13:16:09.090Z,11136.00
2018-04-25T13:17:09.200Z,10240.00
2018-04-25T13:18:09.477Z,9720.00
2018-04-25T13:19:09.626Z,9520.00
2018-04-25T13:20:11.440Z,9508.00
2018-04-25T13:21:11.762Z,9684.00
2018-04-25T13:22:10.102Z,10316.00
2018-04-25T13:23:10.223Z,11464.00
2018-04-25T13:24:10.420Z,12084.00
2018-04-25T13:25:10.649Z,11796.00
2018-04-25T13:26:10.731Z,12328.00
2018-04-25T13:27:11.116Z,12188.00
2018-04-25T13:28:11.227Z,11396.00
2018-04-25T13:29:12.367Z,10636.00
2018-04-25T13:30:12.151Z,10432.00
2018-04-25T13:31:12.380Z,10936.00
2018-04-25T13:32:12.948Z,12032.00
2018-04-25T13:33:14.475Z,13324.00
2018-04-25T13:34:12.253Z,14528.00
2018-04-25T13:35:12.425Z,15680.00
2018-04-25T13:36:12.589Z,17376.00
2018-04-25T13:37:12.742Z,20640.00
2018-04-25T13:38:14.784Z,36320.00
2018-04-25T13:39:13.099Z,27424.00
2018-04-25T13:40:13.295Z,27264.00
2018-04-25T13:41:13.650Z,27360.00
2018-04-25T13:42:15.515Z,23392.00
2018-04-25T13:43:15.017Z,20768.00
2018-04-25T13:46:54.093Z,39712.00
2018-04-25T13:49:50.050Z,35520.00
2018-04-25T13:50:40.019Z,90656.00
2018-04-25T13:51:48.616Z,85440.00
2018-04-25T13:52:40.233Z,83296.00
2018-04-25T13:54:40.501Z,57632.00
2018-04-25T13:55:42.154Z,75360.00
2018-04-25T13:56:43.935Z,55200.00
2018-04-25T13:57:43.216Z,75680.00
2018-04-25T13:58:40.140Z,80352.00
2018-04-25T13:59:39.175Z,27936.00
2018-04-25T14:00:39.420Z,68672.00
2018-04-25T14:01:40.060Z,32608.00
2018-04-25T14:02:49.401Z,29504.00
2018-04-25T14:03:42.049Z,21536.00
2018-04-25T14:04:42.514Z,16864.00
2018-04-25T14:05:42.389Z,14492.00
2018-04-25T14:06:50.892Z,14896.00
2018-04-25T14:07:44.879Z,16448.00
2018-04-25T14:08:43.586Z,19712.00
2018-04-25T14:09:44.183Z,35584.00
2018-04-25T14:10:44.177Z,22464.00
2018-04-25T14:11:43.784Z,15712.00
2018-04-25T14:12:43.787Z,19264.00
2018-04-25T14:13:44.584Z,23744.00
2018-04-25T14:14:44.176Z,9548.00
2018-04-25T14:15:45.224Z,7284.00
2018-04-25T14:16:48.508Z,6224.00
2018-04-25T14:17:44.666Z,5964.00
2018-04-25T14:18:57.373Z,5380.00
2018-04-25T14:19:46.367Z,4712.00
2018-04-25T14:23:23.971Z,3576.00
2018-04-25T14:24:07.293Z,3488.00
2018-04-25T14:25:07.612Z,3712.00
2018-04-25T14:26:07.218Z,5304.00
2018-04-25T14:27:07.586Z,7320.00
2018-04-25T14:28:07.709Z,7528.00
2018-04-25T14:29:08.024Z,9816.00
2018-04-25T14:30:08.522Z,24320.00
2018-04-25T14:31:08.395Z,8920.00
2018-04-25T14:32:06.828Z,7720.00
2018-04-25T14:33:07.276Z,6792.00
2018-04-25T14:34:06.329Z,6352.00
2018-04-25T14:35:06.606Z,6684.00
2018-04-25T14:36:06.686Z,7456.00
2018-04-25T14:37:06.988Z,8016.00
2018-04-25T14:38:07.097Z,7704.00
2018-04-25T14:39:08.757Z,6816.00
2018-04-25T14:42:31.839Z,6284.00
2018-04-25T14:43:32.162Z,6416.00
2018-04-25T14:44:34.593Z,7144.00
2018-04-25T14:45:32.470Z,12108.00
2018-04-25T14:46:32.953Z,17888.00
2018-04-25T14:47:33.040Z,12996.00
2018-04-25T14:48:33.661Z,12136.00
2018-04-25T14:49:33.065Z,65088.00
2018-04-25T14:50:33.706Z,67968.00
2018-04-25T14:51:33.671Z,63904.00
2018-04-25T14:53:42.518Z,19200.00
2018-04-25T14:54:43.970Z,70880.00
2018-04-25T14:55:35.152Z,18848.00
2018-04-25T14:56:41.189Z,14376.00
2018-04-25T14:57:35.975Z,59808.00
2018-04-25T14:58:36.168Z,74496.00
2018-04-25T15:00:53.421Z,63008.00
2018-04-25T15:01:35.986Z,61696.00
2018-04-25T15:02:35.571Z,64960.00
2018-04-25T15:03:42.336Z,61504.00
2018-04-25T15:04:39.521Z,22880.00
2018-04-25T15:05:37.169Z,62720.00
2018-04-25T15:06:39.327Z,68960.00
2018-04-25T15:09:18.016Z,15992.00
2018-04-25T15:10:21.087Z,14156.00
2018-04-25T15:11:27.757Z,12024.00
2018-04-25T15:12:18.027Z,10484.00
2018-04-25T15:13:17.850Z,9588.00
2018-04-25T15:14:20.163Z,9100.00
2018-04-25T15:15:18.061Z,8568.00
2018-04-25T15:16:18.710Z,8280.00
2018-04-25T15:17:25.116Z,7912.00
2018-04-25T15:18:21.107Z,8180.00
2018-04-25T15:19:19.782Z,8168.00
2018-04-25T15:20:19.482Z,7868.00
2018-04-25T15:21:20.047Z,7392.00
2018-04-25T15:22:23.401Z,7328.00
2018-04-25T15:23:20.053Z,7368.00
2018-04-25T15:24:17.830Z,7012.00
2018-04-25T15:25:17.772Z,7444.00
2018-04-25T15:26:18.625Z,7020.00
2018-04-25T15:27:18.007Z,5940.00
2018-04-25T15:28:18.208Z,5472.00
2018-04-25T15:29:20.985Z,5036.00
2018-04-25T15:30:19.452Z,4764.00
2018-04-25T15:31:18.598Z,4408.00
2018-04-25T15:32:18.882Z,4064.00
2018-04-25T15:33:18.770Z,3792.00
2018-04-25T15:34:19.728Z,3352.00
2018-04-25T15:35:19.324Z,2820.00
2018-04-25T15:36:19.365Z,2456.00
2018-04-25T15:37:19.580Z,2192.00
2018-04-25T15:38:19.911Z,1996.00
2018-04-25T15:41:29.286Z,2912.00
2018-04-25T15:42:37.352Z,3792.00
2018-04-25T15:43:27.892Z,5312.00
2018-04-25T15:46:12.937Z,47968.00
2018-04-25T15:48:12.988Z,15904.00
2018-04-25T15:49:13.135Z,52448.00
2018-04-25T15:50:22.504Z,52576.00
2018-04-25T15:51:15.981Z,52736.00
2018-04-25T15:52:15.136Z,50784.00
2018-04-25T15:55:30.022Z,9624.00
2018-04-25T15:57:55.976Z,5828.00
2018-04-25T15:58:59.103Z,5456.00
2018-04-25T15:59:55.534Z,6968.00
2018-04-25T16:00:54.492Z,8244.00
2018-04-25T16:01:56.790Z,9204.00
2018-04-25T16:02:55.892Z,7972.00
2018-04-25T16:03:57.057Z,7340.00
2018-04-25T16:05:06.258Z,7324.00
2018-04-25T16:05:55.625Z,7328.00
2018-04-25T16:06:56.539Z,10640.00
2018-04-25T16:07:56.382Z,36160.00
2018-04-25T16:08:56.039Z,34016.00
2018-04-25T16:09:56.237Z,9876.00
2018-04-25T16:10:56.707Z,32256.00
2018-04-25T16:11:56.624Z,27424.00
2018-04-25T16:12:57.025Z,13996.00
2018-04-25T16:13:56.996Z,10396.00
2018-04-25T16:14:57.470Z,17888.00
2018-04-25T16:15:58.327Z,22240.00
2018-04-25T16:16:57.546Z,11028.00
2018-04-25T16:17:57.472Z,8600.00